createdAt,value
2022-08-14T00:02:37.181Z,5.67
2022-08-14T00:08:01.483Z,5.07
2022-08-14T00:13:28.613Z,4.60
2022-08-14T00:19:06.591Z,4.50
2022-08-14T00:24:39.205Z,4.90
2022-08-14T00:30:02.300Z,5.67
2022-08-14T00:35:42.224Z,4.73
2022-08-14T00:41:11.719Z,5.20
2022-08-14T00:46:35.419Z,4.97
2022-08-14T00:51:59.846Z,4.80
2022-08-14T00:57:25.525Z,5.37
2022-08-14T01:02:48.529Z,4.27
2022-08-14T01:08:52.450Z,5.00
2022-08-14T01:14:25.514Z,5.10
2022-08-14T01:20:05.885Z,5.07
2022-08-14T01:25:52.847Z,5.57
2022-08-14T01:31:18.428Z,5.23
2022-08-14T01:36:41.754Z,5.30
2022-08-14T01:42:08.824Z,5.60
2022-08-14T01:47:33.557Z,5.50
2022-08-14T01:53:01.287Z,6.27
2022-08-14T01:58:29.711Z,7.20
2022-08-14T02:03:57.147Z,6.63
2022-08-14T02:09:22.565Z,6.63
2022-08-14T02:14:59.024Z,7.50
2022-08-14T02:20:23.846Z,7.50
2022-08-14T02:25:54.551Z,7.70
2022-08-14T02:31:19.811Z,7.63
2022-08-14T02:37:03.866Z,6.50
2022-08-14T02:42:47.168Z,6.73
2022-08-14T02:49:02.561Z,6.70
2022-08-14T02:54:01.499Z,6.47
2022-08-14T02:59:29.560Z,6.73
2022-08-14T03:04:58.246Z,7.07
2022-08-14T03:10:27.763Z,7.40
2022-08-14T03:15:57.981Z,7.00
2022-08-14T03:21:25.050Z,6.67
2022-08-14T03:26:49.714Z,7.40
2022-08-14T03:32:20.253Z,7.27
2022-08-14T03:39:10.667Z,8.27
2022-08-14T03:43:37.999Z,7.87
2022-08-14T03:49:05.294Z,6.80
2022-08-14T03:54:30.962Z,7.10
2022-08-14T03:59:53.984Z,7.50
2022-08-14T04:05:17.120Z,8.77
2022-08-14T04:10:41.609Z,8.80
2022-08-14T04:16:06.789Z,8.17
2022-08-14T04:21:39.706Z,8.03
2022-08-14T04:27:17.693Z,8.07
2022-08-14T04:33:12.152Z,7.83
2022-08-14T04:38:41.724Z,8.50
2022-08-14T04:44:06.461Z,8.10
2022-08-14T04:49:46.519Z,8.03
2022-08-14T04:55:20.495Z,7.40
2022-08-14T05:00:45.263Z,8.10
2022-08-14T05:06:37.818Z,7.87
2022-08-14T05:11:55.776Z,7.90
2022-08-14T05:17:54.017Z,8.00
2022-08-14T05:23:28.766Z,8.10
2022-08-14T05:28:51.736Z,8.77
2022-08-14T05:34:16.209Z,8.30
2022-08-14T05:39:41.200Z,9.37
2022-08-14T05:45:11.148Z,9.23
2022-08-14T05:50:38.220Z,8.60
2022-08-14T05:56:01.231Z,7.77
2022-08-14T06:01:24.443Z,7.50
2022-08-14T06:06:55.678Z,7.53
2022-08-14T06:12:31.399Z,6.60
2022-08-14T06:18:04.256Z,8.20
2022-08-14T06:23:28.613Z,7.07
2022-08-14T06:28:52.819Z,7.47
2022-08-14T06:35:10.161Z,8.00
2022-08-14T06:40:01.550Z,7.53
2022-08-14T06:45:28.415Z,7.60
2022-08-14T06:50:53.751Z,8.03
2022-08-14T07:03:29.963Z,7.60
2022-08-14T07:08:54.564Z,7.63
2022-08-14T07:14:19.137Z,7.93
2022-08-14T07:19:42.169Z,8.03
2022-08-14T07:25:05.742Z,7.57
2022-08-14T07:30:33.820Z,6.80
2022-08-14T07:35:59.844Z,8.43
2022-08-14T07:41:23.056Z,6.90
2022-08-14T07:46:47.334Z,7.27
2022-08-14T07:52:10.621Z,7.27
2022-08-14T07:57:36.362Z,6.77
2022-08-14T08:03:02.968Z,7.37
2022-08-14T08:08:27.725Z,6.50
2022-08-14T08:13:58.464Z,7.40
2022-08-14T08:19:23.908Z,7.47
2022-08-14T08:24:47.355Z,6.93
2022-08-14T08:30:14.775Z,6.57
2022-08-14T08:35:46.963Z,7.20
2022-08-14T08:41:16.769Z,6.70
2022-08-14T08:46:42.662Z,7.00
2022-08-14T08:52:15.073Z,6.80
2022-08-14T08:57:38.648Z,6.67
2022-08-14T09:03:05.325Z,5.90
2022-08-14T09:08:32.783Z,6.67
2022-08-14T09:13:56.418Z,6.97
2022-08-14T09:19:22.078Z,7.00
2022-08-14T09:24:49.497Z,7.20
2022-08-14T09:30:31.137Z,9.00
2022-08-14T09:36:12.765Z,7.57
2022-08-14T09:42:20.151Z,7.40
2022-08-14T09:47:49.183Z,8.00
2022-08-14T09:53:19.102Z,7.13
2022-08-14T09:58:46.867Z,6.30
2022-08-14T10:04:32.928Z,6.20
2022-08-14T10:10:02.066Z,6.77
2022-08-14T10:15:29.965Z,6.27
2022-08-14T10:20:57.855Z,6.20
2022-08-14T10:26:28.444Z,6.60
2022-08-14T10:32:00.214Z,5.60
2022-08-14T10:37:28.040Z,5.63
2022-08-14T10:42:51.687Z,5.40
2022-08-14T10:48:24.530Z,6.50
2022-08-14T10:54:16.455Z,5.60
2022-08-14T10:59:55.547Z,5.40
2022-08-14T11:05:20.432Z,5.37
2022-08-14T11:10:46.666Z,5.23
2022-08-14T11:16:09.949Z,5.47
2022-08-14T11:21:35.860Z,5.63
2022-08-14T11:27:05.512Z,6.87
2022-08-14T11:32:29.182Z,5.50
2022-08-14T11:37:57.422Z,5.80
2022-08-14T11:43:29.023Z,5.80
2022-08-14T11:49:04.323Z,5.83
2022-08-14T11:54:35.179Z,5.23
2022-08-14T12:00:04.717Z,5.10
2022-08-14T12:05:34.238Z,4.90
2022-08-14T12:11:00.735Z,5.00
2022-08-14T12:16:25.104Z,5.90
2022-08-14T12:21:52.245Z,5.40
2022-08-14T12:27:18.531Z,4.90
2022-08-14T12:32:48.386Z,6.10
2022-08-14T12:38:19.438Z,5.97
2022-08-14T12:43:53.983Z,6.33
2022-08-14T12:49:22.943Z,5.67
2022-08-14T12:55:06.178Z,5.03
2022-08-14T13:00:32.263Z,4.97
2022-08-14T13:05:59.395Z,5.20
2022-08-14T13:11:31.347Z,5.20
2022-08-14T13:16:58.833Z,5.20
2022-08-14T13:22:32.174Z,4.90
2022-08-14T13:27:59.328Z,4.50
2022-08-14T13:33:25.059Z,5.83
2022-08-14T13:38:51.136Z,5.20
2022-08-14T13:44:15.020Z,5.80
2022-08-14T13:49:57.758Z,5.00
2022-08-14T13:55:23.898Z,4.90
2022-08-14T14:00:54.838Z,5.20
2022-08-14T14:06:21.747Z,6.57
2022-08-14T14:11:45.603Z,8.53
2022-08-14T14:17:12.466Z,7.27
2022-08-14T14:23:02.168Z,6.87
2022-08-14T14:28:31.137Z,6.47
2022-08-14T14:34:07.592Z,5.83
2022-08-14T14:40:54.419Z,5.27
2022-08-14T14:45:32.837Z,5.10
2022-08-14T14:51:01.333Z,5.00
2022-08-14T14:56:50.489Z,6.00
2022-08-14T15:02:22.602Z,7.17
2022-08-14T15:07:48.100Z,6.07
2022-08-14T15:13:12.873Z,5.67
2022-08-14T15:18:39.471Z,4.33
2022-08-14T15:24:06.077Z,5.37
2022-08-14T15:29:43.199Z,4.97
2022-08-14T15:35:07.856Z,4.50
2022-08-14T15:40:31.153Z,4.93
2022-08-14T15:45:56.235Z,4.70
2022-08-14T15:51:24.854Z,4.83
2022-08-14T15:56:58.624Z,5.00
2022-08-14T16:02:27.611Z,5.03
2022-08-14T16:07:51.046Z,5.00
2022-08-14T16:13:17.255Z,5.43
2022-08-14T16:18:59.662Z,4.27
2022-08-14T16:24:27.910Z,5.10
2022-08-14T16:29:51.370Z,4.73
2022-08-14T16:35:16.429Z,5.17
2022-08-14T16:40:43.555Z,4.50
2022-08-14T16:46:07.688Z,4.67
2022-08-14T16:51:34.979Z,5.23
2022-08-14T16:57:16.188Z,5.00
2022-08-14T17:02:43.558Z,5.33
2022-08-14T17:08:32.510Z,4.77
2022-08-14T17:14:01.451Z,4.47
2022-08-14T17:19:25.879Z,4.97
2022-08-14T17:25:03.750Z,5.40
2022-08-14T17:30:31.926Z,5.13
2022-08-14T17:36:21.098Z,4.80
2022-08-14T17:42:03.039Z,4.57
2022-08-14T17:47:27.815Z,5.00
2022-08-14T17:52:57.156Z,4.40
2022-08-14T17:58:24.388Z,4.90
2022-08-14T18:03:53.999Z,4.73
2022-08-14T18:09:25.916Z,5.13
2022-08-14T18:14:53.668Z,5.57
2022-08-14T18:21:41.767Z,5.10
2022-08-14T18:26:04.884Z,5.30
2022-08-14T18:31:43.921Z,14.67
2022-08-14T18:37:21.285Z,8.33
2022-08-14T18:42:48.080Z,6.70
2022-08-14T18:48:33.197Z,5.40
2022-08-14T18:54:32.749Z,5.70
2022-08-14T18:59:57.604Z,6.00
2022-08-14T19:05:56.463Z,5.67
2022-08-14T19:11:50.285Z,5.23
2022-08-14T19:18:14.228Z,5.77
2022-08-14T19:23:42.010Z,5.53
2022-08-14T19:29:24.610Z,6.10
2022-08-14T19:34:52.952Z,7.87
2022-08-14T19:40:31.771Z,7.77
2022-08-14T19:46:01.389Z,5.53
2022-08-14T19:51:32.690Z,5.53
2022-08-14T19:57:01.363Z,5.50
2022-08-14T20:02:30.315Z,4.73
2022-08-14T20:08:06.184Z,6.50
2022-08-14T20:13:32.592Z,5.17
2022-08-14T20:18:58.804Z,4.80
2022-08-14T20:24:31.639Z,5.63
2022-08-14T20:30:33.551Z,6.80
2022-08-14T20:36:00.005Z,6.07
2022-08-14T20:41:25.365Z,6.20
2022-08-14T20:46:49.924Z,6.30
2022-08-14T20:52:20.137Z,5.97
2022-08-14T20:57:44.333Z,7.07
2022-08-14T21:03:57.145Z,6.47
2022-08-14T21:10:03.161Z,6.90
2022-08-14T21:15:13.777Z,6.83
2022-08-14T21:20:38.537Z,5.77
2022-08-14T21:26:03.685Z,6.20
2022-08-14T21:31:30.335Z,5.53
2022-08-14T21:36:55.682Z,5.40
2022-08-14T21:42:18.969Z,6.10
2022-08-14T21:47:43.329Z,5.70
2022-08-14T21:53:08.775Z,5.90
2022-08-14T21:58:53.054Z,5.20
2022-08-14T22:04:33.800Z,5.57
2022-08-14T22:09:59.267Z,6.10
2022-08-14T22:15:30.094Z,5.90
2022-08-14T22:20:56.502Z,5.87
2022-08-14T22:26:21.902Z,5.60
2022-08-14T22:31:50.341Z,5.70
2022-08-14T22:37:21.433Z,5.90
2022-08-14T22:42:59.904Z,6.37
2022-08-14T22:48:26.495Z,5.90
2022-08-14T22:53:54.759Z,6.40
2022-08-14T22:59:20.379Z,5.80
2022-08-14T23:05:03.336Z,6.37
2022-08-14T23:10:31.824Z,6.30
2022-08-14T23:15:59.035Z,6.60
2022-08-14T23:21:24.470Z,6.33
2022-08-14T23:26:50.652Z,6.73
2022-08-14T23:32:19.157Z,6.60
2022-08-14T23:37:43.860Z,6.40
2022-08-14T23:43:11.209Z,7.10
2022-08-14T23:48:39.147Z,6.30
2022-08-14T23:54:48.097Z,6.10
2022-08-14T23:59:54.268Z,6.40
